Time;durP1;ratioP1;P1;durP2;ratioP2;P2;SDS_P1;SDS_P2;PMS_P1;PMS_P2;Temp;Humidity;BMP_temperature;BMP_pressure;BME280_temperature;BME280_humidity;BME280_pressure;Samples;Min_cycle;Max_cycle;Signal;HPM_P1;HPM_P2
2022/01/25 00:24:52;;;;;;;15.60;11.10;;;5.70;99.90;;;;;;5071551;28;20509;-68
2022/01/25 00:29:56;;;;;;;14.57;11.87;;;5.70;99.90;;;;;;5071981;28;20924;-67
2022/01/25 00:32:22;;;;;;;14.00;11.17;;;5.60;99.90;;;;;;5070331;28;20418;-67
2022/01/25 00:34:48;;;;;;;16.80;12.30;;;5.60;99.90;;;;;;5071397;28;20773;-67
2022/01/25 00:37:13;;;;;;;15.30;11.53;;;5.50;99.90;;;;;;5071036;28;20426;-67
2022/01/25 00:39:40;;;;;;;17.60;13.03;;;5.50;99.90;;;;;;5060190;28;20209;-68
2022/01/25 00:42:10;;;;;;;16.50;13.57;;;5.50;99.90;;;;;;5051936;28;20262;-68
2022/01/25 00:44:38;;;;;;;16.93;12.93;;;5.40;99.90;;;;;;5051717;28;20921;-68
2022/01/25 00:47:07;;;;;;;15.13;13.10;;;5.40;99.90;;;;;;5051312;28;20948;-67
2022/01/25 00:49:39;;;;;;;14.40;12.53;;;5.50;99.90;;;;;;5062281;28;20437;-67
2022/01/25 00:54:52;;;;;;;19.47;13.23;;;5.10;99.90;;;;;;5065691;28;20475;-67
2022/01/25 00:57:18;;;;;;;21.37;12.73;;;4.90;99.90;;;;;;5054814;28;20416;-67
2022/01/25 00:59:44;;;;;;;17.67;13.20;;;4.80;99.90;;;;;;5056435;28;20494;-66
2022/01/25 01:02:12;;;;;;;17.83;12.80;;;4.70;99.90;;;;;;5055369;28;20412;-67
2022/01/25 01:04:41;;;;;;;15.80;12.27;;;4.70;99.90;;;;;;5055275;28;20427;-68
2022/01/25 01:07:08;;;;;;;17.83;13.53;;;4.80;99.90;;;;;;5055241;28;20820;-66
2022/01/25 01:09:37;;;;;;;18.40;13.87;;;4.90;99.90;;;;;;5055337;28;20940;-66
2022/01/25 01:12:12;;;;;;;16.13;13.37;;;5.00;99.90;;;;;;5056591;28;20431;-67
2022/01/25 01:14:54;;;;;;;18.80;13.73;;;5.00;99.90;;;;;;5056143;28;20446;-67
2022/01/25 01:31:34;;;;;;;19.57;13.20;;;5.20;99.90;;;;;;5055640;28;20446;-67
2022/01/25 01:36:32;;;;;;;17.37;13.60;;;5.20;99.90;;;;;;5054909;28;20918;-67
2022/01/25 01:44:03;;;;;;;16.93;13.00;;;5.20;99.90;;;;;;5056289;28;20469;-68
2022/01/25 01:46:36;;;;;;;16.77;13.23;;;5.20;99.90;;;;;;5053915;28;20949;-67
2022/01/25 01:49:05;;;;;;;15.30;11.70;;;5.20;99.90;;;;;;5054680;28;20416;-67
2022/01/25 01:51:34;;;;;;;20.50;13.80;;;5.20;99.90;;;;;;5054597;28;20424;-67
2022/01/25 01:54:09;;;;;;;16.87;13.07;;;5.30;99.90;;;;;;5038170;28;20796;-68
2022/01/25 01:56:36;;;;;;;15.67;12.40;;;5.30;99.90;;;;;;5054777;28;20834;-68
2022/01/25 01:59:06;;;;;;;18.20;13.20;;;5.30;99.90;;;;;;5054132;28;20452;-67
2022/01/25 02:01:33;;;;;;;18.90;13.27;;;5.30;99.90;;;;;;5054928;28;20408;-67
2022/01/25 02:04:00;;;;;;;19.70;14.10;;;5.30;99.90;;;;;;5055691;28;20859;-68
2022/01/25 02:06:27;;;;;;;17.00;13.90;;;5.40;99.90;;;;;;5054652;28;20468;-68
2022/01/25 02:08:52;;;;;;;17.60;13.60;;;5.40;99.90;;;;;;5054487;28;20417;-68
2022/01/25 02:11:18;;;;;;;21.77;15.13;;;5.40;99.90;;;;;;5054705;28;20912;-67
2022/01/25 02:13:46;;;;;;;18.43;13.27;;;5.20;99.90;;;;;;5036786;28;20646;-67
2022/01/25 02:16:21;;;;;;;18.33;14.10;;;5.20;99.90;;;;;;5054234;28;20194;-66
2022/01/25 02:24:17;;;;;;;19.03;13.47;;;5.20;99.90;;;;;;5074557;28;20423;-67
2022/01/25 02:26:42;;;;;;;20.43;13.97;;;5.20;99.90;;;;;;5074022;28;20418;-67
2022/01/25 02:29:08;;;;;;;19.50;14.00;;;5.20;99.90;;;;;;5074489;28;20184;-67
2022/01/25 02:31:33;;;;;;;22.27;14.20;;;5.20;99.90;;;;;;5074764;28;20263;-67
2022/01/25 02:33:59;;;;;;;22.60;14.23;;;5.20;99.90;;;;;;5074840;28;20716;-67
2022/01/25 02:36:28;;;;;;;19.07;14.63;;;5.20;99.90;;;;;;5073302;28;20209;-67
2022/01/25 02:38:55;;;;;;;20.07;14.30;;;5.30;99.90;;;;;;5058866;28;20205;-68
2022/01/25 02:41:21;;;;;;;22.67;14.20;;;5.30;99.90;;;;;;5056640;28;20420;-67
2022/01/25 02:43:48;;;;;;;21.67;14.77;;;5.40;99.90;;;;;;5074241;28;20515;-66
2022/01/25 02:49:00;;;;;;;19.17;14.40;;;5.40;99.90;;;;;;5073859;28;20415;-67
2022/01/25 02:51:30;;;;;;;18.93;12.80;;;5.40;99.90;;;;;;5073523;28;21142;-67
2022/01/25 02:53:56;;;;;;;19.87;14.63;;;5.40;99.90;;;;;;5071716;28;20506;-68
2022/01/25 02:56:23;;;;;;;18.40;13.13;;;5.40;99.90;;;;;;5053016;28;20479;-68
2022/01/25 02:58:49;;;;;;;19.93;14.20;;;5.40;99.90;;;;;;5053406;28;20488;-68
2022/01/25 03:01:16;;;;;;;17.87;13.00;;;5.40;99.90;;;;;;5053190;28;20780;-67
2022/01/25 03:03:41;;;;;;;18.00;13.57;;;5.50;99.90;;;;;;5053497;28;20409;-67
2022/01/25 03:06:07;;;;;;;21.00;13.73;;;5.50;99.90;;;;;;5052899;28;20431;-68
2022/01/25 03:08:33;;;;;;;20.07;13.37;;;5.50;99.90;;;;;;5053320;28;20174;-68
2022/01/25 03:10:59;;;;;;;20.10;13.33;;;5.40;99.90;;;;;;5052519;28;20166;-67
2022/01/25 03:13:32;;;;;;;16.70;12.13;;;5.40;99.90;;;;;;5040287;28;20800;-68
2022/01/25 03:16:05;;;;;;;16.37;12.50;;;5.40;99.90;;;;;;5034762;28;20201;-68
2022/01/25 03:21:15;;;;;;;20.33;13.97;;;5.30;99.90;;;;;;5053363;28;20405;-67
2022/01/25 03:23:41;;;;;;;18.50;12.60;;;5.30;99.90;;;;;;5052988;28;20879;-68
2022/01/25 03:26:07;;;;;;;16.40;11.40;;;5.30;99.90;;;;;;5052525;28;20487;-68
2022/01/25 03:28:33;;;;;;;17.83;11.80;;;5.20;99.90;;;;;;5052880;28;20458;-68
2022/01/25 03:30:58;;;;;;;17.60;12.07;;;5.20;99.90;;;;;;5072234;28;20577;-68
2022/01/25 03:33:24;;;;;;;20.03;12.63;;;5.20;99.90;;;;;;5072921;28;20181;-68
2022/01/25 03:35:49;;;;;;;18.00;13.10;;;5.20;99.90;;;;;;5072190;28;20196;-67
2022/01/25 03:38:15;;;;;;;18.70;12.67;;;5.10;99.90;;;;;;5072842;28;20288;-67
2022/01/25 03:40:40;;;;;;;18.73;13.70;;;5.00;99.90;;;;;;5072786;28;20173;-67
2022/01/25 03:43:08;;;;;;;17.87;12.63;;;4.90;99.90;;;;;;5072762;28;20169;-66
2022/01/25 03:45:36;;;;;;;17.57;12.20;;;4.70;99.90;;;;;;5072376;28;20193;-68
2022/01/25 03:50:39;;;;;;;19.10;13.07;;;4.50;99.90;;;;;;5072710;28;20387;-66
2022/01/25 03:53:05;;;;;;;20.90;13.10;;;4.50;99.90;;;;;;5072485;28;20518;-67
2022/01/25 03:55:30;;;;;;;18.70;13.23;;;4.60;99.90;;;;;;5072204;28;20457;-67
2022/01/25 03:57:56;;;;;;;17.13;12.13;;;4.70;99.90;;;;;;5072274;28;20411;-67
2022/01/25 04:00:22;;;;;;;18.13;12.10;;;4.70;99.90;;;;;;5072296;28;20177;-68
2022/01/25 04:02:54;;;;;;;20.30;13.27;;;4.70;99.90;;;;;;5072549;28;20168;-67
2022/01/25 04:05:34;;;;;;;20.33;13.90;;;4.80;99.90;;;;;;5070462;28;20186;-68
2022/01/25 04:07:59;;;;;;;20.53;13.27;;;4.70;99.90;;;;;;5072360;28;20406;-68
2022/01/25 04:10:25;;;;;;;20.03;13.60;;;4.80;99.90;;;;;;5072680;28;20400;-67
2022/01/25 04:12:50;;;;;;;17.00;12.70;;;4.90;99.90;;;;;;5072549;28;20665;-68
2022/01/25 04:15:16;;;;;;;16.83;12.37;;;5.00;99.90;;;;;;5073459;28;20750;-68
2022/01/25 04:17:46;;;;;;;18.80;12.80;;;5.10;99.90;;;;;;5073214;28;20168;-68
2022/01/25 04:20:20;;;;;;;16.87;11.80;;;5.10;99.90;;;;;;5072900;28;20684;-67
2022/01/25 04:25:30;;;;;;;18.37;12.87;;;5.10;99.90;;;;;;5078715;28;20985;-67
2022/01/25 04:27:55;;;;;;;19.17;13.10;;;5.10;99.90;;;;;;5078444;28;20407;-68
2022/01/25 04:30:21;;;;;;;19.33;12.83;;;5.00;99.90;;;;;;5078408;28;20199;-68
2022/01/25 04:32:50;;;;;;;19.70;12.37;;;4.80;99.90;;;;;;5078610;28;20630;-68
2022/01/25 04:48:59;;;;;;;17.43;11.93;;;4.80;99.90;;;;;;5052012;28;20442;-68
2022/01/25 04:54:17;;;;;;;23.77;14.53;;;4.90;99.90;;;;;;5054275;28;20422;-68
2022/01/25 04:57:08;;;;;;;20.07;13.20;;;5.00;99.90;;;;;;5053979;28;20948;-67
2022/01/25 05:02:12;;;;;;;23.90;13.40;;;5.10;99.90;;;;;;5058746;28;20434;-68
2022/01/25 05:04:43;;;;;;;21.23;12.83;;;5.10;99.90;;;;;;5051352;28;20205;-68
2022/01/25 05:07:38;;;;;;;19.57;12.50;;;5.10;99.90;;;;;;5057148;28;20455;-67
2022/01/25 05:09:56;;;;;;;18.83;12.57;;;5.00;99.90;;;;;;5057150;28;21029;-67
2022/01/25 05:18:00;;;;;;;21.30;13.07;;;4.90;99.90;;;;;;5068646;28;20471;-67
2022/01/25 05:23:10;;;;;;;20.53;12.90;;;5.00;99.90;;;;;;5057943;28;20493;-67
2022/01/25 05:25:36;;;;;;;19.57;12.80;;;4.90;99.90;;;;;;5063626;28;20424;-69
2022/01/25 05:28:01;;;;;;;18.47;12.03;;;5.00;99.90;;;;;;5058963;28;20190;-67
2022/01/25 05:30:27;;;;;;;21.73;13.87;;;5.00;99.90;;;;;;5035608;28;20336;-70
2022/01/25 05:32:52;;;;;;;19.30;13.30;;;5.00;99.90;;;;;;5116080;22;20218;-67
2022/01/25 05:35:18;;;;;;;17.67;12.80;;;4.90;99.90;;;;;;5094254;28;20172;-67
2022/01/25 05:37:43;;;;;;;20.67;12.93;;;4.90;99.90;;;;;;5094778;28;20180;-68
2022/01/25 05:40:15;;;;;;;21.27;13.80;;;5.00;99.90;;;;;;5094649;28;20231;-68
2022/01/25 05:47:51;;;;;;;20.43;13.30;;;5.00;99.90;;;;;;5054674;28;20224;-68
2022/01/25 05:50:17;;;;;;;19.37;12.30;;;5.00;99.90;;;;;;5054293;28;20413;-67
2022/01/25 05:52:42;;;;;;;19.97;13.30;;;5.00;99.90;;;;;;5055202;28;20201;-68
2022/01/25 05:55:09;;;;;;;20.07;12.80;;;5.10;99.90;;;;;;5054395;28;20185;-68
2022/01/25 05:57:35;;;;;;;18.07;12.47;;;5.00;99.90;;;;;;5035982;28;20198;-68
2022/01/25 06:00:00;;;;;;;20.37;13.77;;;4.90;99.90;;;;;;5053935;28;20991;-68
2022/01/25 06:02:30;;;;;;;20.67;12.87;;;4.80;99.90;;;;;;5054068;28;20193;-68
2022/01/25 06:04:55;;;;;;;22.30;13.53;;;4.80;99.90;;;;;;5037227;28;20181;-67
2022/01/25 06:07:21;;;;;;;20.50;12.90;;;4.90;99.90;;;;;;5053676;28;20408;-67
2022/01/25 06:09:48;;;;;;;20.87;12.63;;;4.90;99.90;;;;;;5054005;28;20233;-68
2022/01/25 06:12:14;;;;;;;23.67;13.40;;;4.90;99.90;;;;;;5053688;28;20602;-68
2022/01/25 06:14:40;;;;;;;18.50;12.20;;;4.90;99.90;;;;;;5055008;28;20432;-68
2022/01/25 06:17:05;;;;;;;25.57;13.43;;;4.90;99.90;;;;;;5053816;28;20172;-68
2022/01/25 06:19:31;;;;;;;21.87;13.73;;;4.80;99.90;;;;;;5053547;28;20202;-68
2022/01/25 06:21:56;;;;;;;23.33;13.87;;;4.90;99.90;;;;;;5053657;28;20198;-69
2022/01/25 06:24:22;;;;;;;23.30;13.83;;;4.90;99.90;;;;;;5054361;28;20171;-68
2022/01/25 06:26:47;;;;;;;24.27;13.17;;;4.90;99.90;;;;;;5053984;28;20637;-67
2022/01/25 06:29:16;;;;;;;22.83;13.40;;;5.00;99.90;;;;;;5053283;28;20185;-68
2022/01/25 06:31:42;;;;;;;21.67;13.67;;;5.00;99.90;;;;;;5053435;28;20713;-68
2022/01/25 06:34:07;;;;;;;21.67;12.83;;;4.90;99.90;;;;;;5053518;28;20461;-68
2022/01/25 06:36:36;;;;;;;19.40;13.00;;;5.00;99.90;;;;;;5054462;28;20186;-68
2022/01/25 06:39:01;;;;;;;24.97;14.33;;;4.90;99.90;;;;;;5058972;28;20199;-68
2022/01/25 06:41:27;;;;;;;23.33;13.43;;;4.90;99.90;;;;;;5055048;28;20876;-68
2022/01/25 06:43:53;;;;;;;22.63;13.40;;;4.90;99.90;;;;;;5073170;28;20169;-69
2022/01/25 06:46:18;;;;;;;22.50;13.97;;;4.90;99.90;;;;;;5072822;28;20644;-68
2022/01/25 06:48:44;;;;;;;20.63;13.17;;;4.90;99.90;;;;;;5067540;28;20360;-67
2022/01/25 06:51:09;;;;;;;23.37;14.67;;;4.80;99.90;;;;;;5059512;28;20214;-68
2022/01/25 06:53:35;;;;;;;26.27;15.50;;;4.60;99.90;;;;;;5057778;28;20206;-67
2022/01/25 06:56:04;;;;;;;25.43;14.10;;;4.40;99.90;;;;;;5066625;28;20248;-68
2022/01/25 06:58:29;;;;;;;24.77;14.50;;;4.30;99.90;;;;;;5056898;28;20579;-68
2022/01/25 07:00:55;;;;;;;25.60;15.77;;;4.30;99.90;;;;;;5063348;28;20467;-68
2022/01/25 07:03:21;;;;;;;26.53;14.33;;;4.40;99.90;;;;;;5040729;28;20207;-67
2022/01/25 07:05:46;;;;;;;24.90;15.23;;;4.50;99.90;;;;;;5070369;28;20219;-68
2022/01/25 07:08:12;;;;;;;24.90;16.23;;;4.50;99.90;;;;;;5056549;28;20671;-68
2022/01/25 07:10:38;;;;;;;27.13;14.77;;;4.50;99.90;;;;;;5054212;28;20200;-68
2022/01/25 07:13:03;;;;;;;28.83;14.57;;;4.50;99.90;;;;;;5071651;28;20208;-70
2022/01/25 07:15:29;;;;;;;21.83;13.27;;;4.60;99.90;;;;;;5071441;28;20291;-68
2022/01/25 07:17:55;;;;;;;26.40;15.30;;;4.60;99.90;;;;;;5070580;28;20576;-68
2022/01/25 07:20:20;;;;;;;25.63;14.20;;;4.60;99.90;;;;;;5071139;28;20219;-69
2022/01/25 07:22:46;;;;;;;19.80;13.30;;;4.60;99.90;;;;;;5068748;28;20224;-69
2022/01/25 07:25:12;;;;;;;21.10;13.60;;;4.60;99.90;;;;;;5037639;28;20204;-67
2022/01/25 07:27:38;;;;;;;23.23;13.17;;;4.60;99.90;;;;;;5049812;28;20270;-68
2022/01/25 07:30:05;;;;;;;22.67;13.80;;;4.60;99.90;;;;;;5051043;28;20443;-69
2022/01/25 07:32:31;;;;;;;26.37;14.70;;;4.60;99.90;;;;;;5051142;28;20279;-66
2022/01/25 07:34:56;;;;;;;18.83;12.93;;;4.70;99.90;;;;;;5032191;28;20934;-67
2022/01/25 07:37:22;;;;;;;24.73;14.23;;;4.80;99.90;;;;;;5050408;28;20505;-67
2022/01/25 07:39:48;;;;;;;25.07;14.73;;;4.90;99.90;;;;;;5049377;28;20224;-67
2022/01/25 07:42:14;;;;;;;21.83;13.80;;;4.80;99.90;;;;;;5050989;28;20240;-69
2022/01/25 07:44:41;;;;;;;21.67;13.23;;;4.70;99.90;;;;;;5070357;28;20234;-68
2022/01/25 07:47:08;;;;;;;18.70;12.57;;;4.70;99.90;;;;;;5069873;28;20450;-69
2022/01/25 07:49:34;;;;;;;20.20;13.70;;;4.70;99.90;;;;;;5051949;28;20562;-67
2022/01/25 07:52:00;;;;;;;22.03;13.00;;;4.60;99.90;;;;;;5069932;28;20522;-68
2022/01/25 07:54:26;;;;;;;23.73;13.60;;;4.60;99.90;;;;;;5068319;28;20802;-69
2022/01/25 07:56:52;;;;;;;27.00;12.53;;;4.70;99.90;;;;;;5068487;28;20467;-70
2022/01/25 07:59:18;;;;;;;18.57;12.30;;;4.70;99.90;;;;;;5055533;28;20467;-68
2022/01/25 08:01:44;;;;;;;19.73;12.70;;;4.70;99.90;;;;;;5050270;28;20433;-68
2022/01/25 08:04:11;;;;;;;21.17;13.10;;;4.80;99.90;;;;;;5057318;28;20169;-68
2022/01/25 08:06:37;;;;;;;22.73;13.30;;;4.80;99.90;;;;;;5070470;28;20438;-68
2022/01/25 08:09:05;;;;;;;20.80;12.20;;;4.90;99.90;;;;;;5071602;28;20407;-68
2022/01/25 08:11:31;;;;;;;18.93;12.43;;;4.90;99.90;;;;;;5071250;28;20505;-67
2022/01/25 08:14:11;;;;;;;19.83;12.63;;;4.70;99.90;;;;;;5070648;28;21157;-68
2022/01/25 08:16:38;;;;;;;23.50;14.10;;;4.70;99.90;;;;;;5070706;28;20410;-69
2022/01/25 08:19:03;;;;;;;20.47;13.80;;;4.70;99.90;;;;;;5071087;28;20451;-68
2022/01/25 08:21:29;;;;;;;20.67;13.33;;;4.70;99.90;;;;;;5070839;28;20431;-69
2022/01/25 08:23:54;;;;;;;21.23;12.67;;;4.70;99.90;;;;;;5071074;28;20912;-68
2022/01/25 08:26:20;;;;;;;20.50;13.60;;;4.50;99.90;;;;;;5069141;28;20275;-68
2022/01/25 08:28:45;;;;;;;20.27;12.07;;;4.40;99.90;;;;;;5070356;28;20270;-68
2022/01/25 08:31:11;;;;;;;22.93;12.20;;;4.40;99.90;;;;;;5070620;28;20220;-69
2022/01/25 08:33:37;;;;;;;21.20;12.10;;;4.40;99.90;;;;;;5070760;28;20177;-70
2022/01/25 08:36:03;;;;;;;19.67;12.53;;;4.60;99.90;;;;;;5068571;28;20181;-69
2022/01/25 08:38:29;;;;;;;19.90;11.97;;;4.60;99.90;;;;;;5068999;28;20524;-67
2022/01/25 08:40:54;;;;;;;19.53;11.60;;;4.70;99.90;;;;;;5050536;28;20443;-67
2022/01/25 08:43:20;;;;;;;20.27;12.60;;;4.80;99.90;;;;;;5050556;28;20627;-67
2022/01/25 08:45:46;;;;;;;19.40;11.87;;;4.80;99.90;;;;;;5032212;28;20235;-68
2022/01/25 08:48:11;;;;;;;22.70;12.10;;;4.80;99.90;;;;;;5050708;28;21205;-69
2022/01/25 08:50:37;;;;;;;20.40;12.97;;;4.80;99.90;;;;;;5051165;28;20189;-68
2022/01/25 08:53:02;;;;;;;18.73;11.10;;;4.80;99.90;;;;;;5050671;28;20178;-70
2022/01/25 08:55:28;;;;;;;22.83;12.03;;;4.80;99.90;;;;;;5049981;28;20173;-67
2022/01/25 08:57:53;;;;;;;16.40;10.80;;;4.80;99.90;;;;;;5052961;28;20177;-69
2022/01/25 09:00:19;;;;;;;18.50;11.87;;;4.80;99.90;;;;;;5063670;28;20590;-68
2022/01/25 09:02:44;;;;;;;21.20;12.50;;;4.80;99.90;;;;;;5050423;28;20506;-68
2022/01/25 09:05:11;;;;;;;16.70;10.43;;;4.80;99.90;;;;;;5050570;28;20170;-70
2022/01/25 09:07:37;;;;;;;21.40;12.90;;;4.80;99.90;;;;;;5050143;28;20170;-68
2022/01/25 09:10:03;;;;;;;20.30;11.97;;;4.80;99.90;;;;;;5051801;28;20558;-68
2022/01/25 09:12:29;;;;;;;18.50;11.67;;;4.90;99.90;;;;;;5037377;28;20255;-69
2022/01/25 09:14:54;;;;;;;22.33;12.60;;;4.80;99.90;;;;;;5054150;28;21095;-70
2022/01/25 09:17:20;;;;;;;19.60;12.60;;;4.80;99.90;;;;;;5053554;28;20258;-70
2022/01/25 09:19:46;;;;;;;21.20;13.13;;;4.80;99.90;;;;;;5054126;28;20205;-70
2022/01/25 09:22:11;;;;;;;20.23;12.63;;;4.90;99.90;;;;;;5055080;28;20213;-68
2022/01/25 09:24:37;;;;;;;21.53;12.13;;;4.90;99.90;;;;;;5054021;28;20169;-69
2022/01/25 09:27:05;;;;;;;21.27;12.43;;;4.90;99.90;;;;;;5054089;28;20202;-68
2022/01/25 09:29:31;;;;;;;21.10;12.83;;;4.90;99.90;;;;;;5054090;28;20412;-69
2022/01/25 09:31:57;;;;;;;26.87;13.70;;;4.90;99.90;;;;;;5054799;28;20522;-70
2022/01/25 09:34:23;;;;;;;21.30;12.53;;;4.90;99.90;;;;;;5053986;28;20416;-68
2022/01/25 09:36:50;;;;;;;21.13;12.77;;;4.90;99.90;;;;;;5053544;28;20263;-68
2022/01/25 09:39:16;;;;;;;23.13;13.37;;;4.90;99.90;;;;;;5035698;28;20539;-70
2022/01/25 09:41:42;;;;;;;22.60;13.53;;;4.90;99.90;;;;;;5053503;28;20441;-68
2022/01/25 09:44:08;;;;;;;21.83;13.67;;;5.00;99.90;;;;;;5054782;28;20504;-69
2022/01/25 09:46:33;;;;;;;23.70;13.80;;;5.00;99.90;;;;;;5053197;28;20407;-69
2022/01/25 09:48:59;;;;;;;23.23;13.50;;;4.90;99.90;;;;;;5053594;28;20173;-69
2022/01/25 09:51:25;;;;;;;23.77;13.40;;;4.90;99.90;;;;;;5053293;28;20197;-70
2022/01/25 09:53:51;;;;;;;24.17;14.50;;;5.00;99.90;;;;;;5054644;28;20180;-70
2022/01/25 09:56:17;;;;;;;26.30;15.63;;;5.10;99.90;;;;;;5053414;28;20508;-69
2022/01/25 09:58:44;;;;;;;23.30;12.90;;;5.10;99.90;;;;;;5062440;28;20946;-70
2022/01/25 10:01:11;;;;;;;26.40;13.63;;;5.10;99.90;;;;;;5073313;28;20216;-69
2022/01/25 10:03:39;;;;;;;26.27;15.10;;;5.00;99.90;;;;;;5071347;28;20482;-70
2022/01/25 10:06:12;;;;;;;24.33;14.20;;;5.00;99.90;;;;;;5052997;28;20781;-68
2022/01/25 10:08:38;;;;;;;24.13;14.57;;;5.10;99.90;;;;;;5053184;28;20491;-69
2022/01/25 10:11:10;;;;;;;25.93;15.70;;;5.10;99.90;;;;;;5053224;28;20428;-70
2022/01/25 10:13:39;;;;;;;28.53;16.13;;;5.00;99.90;;;;;;5053003;28;20857;-69
2022/01/25 10:16:10;;;;;;;27.17;16.20;;;5.00;99.90;;;;;;5053614;28;20421;-68
2022/01/25 10:18:53;;;;;;;26.97;15.23;;;5.10;99.90;;;;;;5053049;28;20467;-68
2022/01/25 10:21:27;;;;;;;31.87;16.40;;;5.10;99.90;;;;;;5052320;28;20417;-69
2022/01/25 10:24:08;;;;;;;27.40;14.97;;;5.20;99.90;;;;;;5052870;28;20752;-69
2022/01/25 10:26:39;;;;;;;30.50;16.57;;;5.10;99.90;;;;;;5067467;28;20423;-69
2022/01/25 10:29:05;;;;;;;27.00;15.73;;;5.10;99.90;;;;;;5072846;28;20416;-69
2022/01/25 10:31:37;;;;;;;32.30;17.30;;;5.20;99.90;;;;;;5072476;28;20483;-68
2022/01/25 10:34:05;;;;;;;28.10;15.30;;;5.20;99.90;;;;;;5072986;28;20438;-69
2022/01/25 10:36:31;;;;;;;24.17;15.00;;;5.20;99.90;;;;;;5070558;28;20428;-69
2022/01/25 10:38:57;;;;;;;26.83;15.77;;;5.20;99.90;;;;;;5066799;28;20525;-68
2022/01/25 10:41:25;;;;;;;30.33;18.00;;;5.20;99.90;;;;;;5052556;28;20526;-68
2022/01/25 10:43:53;;;;;;;29.77;16.07;;;5.30;99.90;;;;;;5052453;28;20854;-68
2022/01/25 10:46:28;;;;;;;27.70;16.90;;;5.30;99.90;;;;;;5052433;28;20496;-69
2022/01/25 10:49:00;;;;;;;32.13;17.70;;;5.30;99.90;;;;;;5053476;28;20426;-68
2022/01/25 10:51:39;;;;;;;28.40;16.00;;;5.30;99.90;;;;;;5052250;28;20427;-67
2022/01/25 10:54:09;;;;;;;29.93;17.30;;;5.30;99.90;;;;;;5052186;28;20441;-68
2022/01/25 10:56:49;;;;;;;27.73;16.10;;;5.30;99.90;;;;;;5051873;28;20403;-69
2022/01/25 10:59:26;;;;;;;30.10;16.47;;;5.20;99.90;;;;;;5065567;28;20537;-69
2022/01/25 11:01:55;;;;;;;32.00;16.90;;;5.20;99.90;;;;;;5072455;28;20960;-68
2022/01/25 11:04:31;;;;;;;26.80;16.10;;;5.20;99.90;;;;;;5072043;28;20410;-69
2022/01/25 11:07:03;;;;;;;25.77;15.60;;;5.20;99.90;;;;;;5071734;28;20404;-69
2022/01/25 11:09:36;;;;;;;28.77;17.37;;;5.30;99.90;;;;;;5071970;28;20499;-70
2022/01/25 11:12:09;;;;;;;30.07;16.03;;;5.30;99.90;;;;;;5070183;28;20539;-69
2022/01/25 11:14:50;;;;;;;31.03;17.43;;;5.30;99.90;;;;;;5071665;28;20404;-70
2022/01/25 11:17:20;;;;;;;37.53;18.40;;;5.30;99.90;;;;;;5071543;28;20888;-70
2022/01/25 11:19:45;;;;;;;30.87;16.60;;;5.20;99.90;;;;;;5071589;28;20600;-69
2022/01/25 11:22:12;;;;;;;33.87;17.13;;;5.30;99.90;;;;;;5070080;28;20439;-69
2022/01/25 11:24:40;;;;;;;32.33;16.20;;;5.30;99.90;;;;;;5071825;28;20181;-67
2022/01/25 11:27:07;;;;;;;25.63;15.63;;;5.30;99.90;;;;;;5071411;28;20438;-68
2022/01/25 11:29:35;;;;;;;29.50;15.57;;;5.40;99.90;;;;;;5071579;28;20782;-68
2022/01/25 11:32:16;;;;;;;27.80;17.27;;;5.30;99.90;;;;;;5069058;28;20484;-68
2022/01/25 11:34:44;;;;;;;34.83;17.50;;;5.40;99.90;;;;;;5071810;28;20912;-68
2022/01/25 11:37:10;;;;;;;30.67;17.87;;;5.40;99.90;;;;;;5073642;28;20438;-69
2022/01/25 11:39:40;;;;;;;28.57;16.40;;;5.30;99.90;;;;;;5073930;28;20499;-69
2022/01/25 11:42:09;;;;;;;26.63;15.47;;;5.40;99.90;;;;;;5070655;28;20487;-68
2022/01/25 11:44:49;;;;;;;28.93;17.80;;;5.40;99.90;;;;;;5071243;28;20411;-69
2022/01/25 11:47:16;;;;;;;30.37;17.20;;;5.40;99.90;;;;;;5070891;28;20388;-68
2022/01/25 11:49:53;;;;;;;31.07;16.53;;;5.40;99.90;;;;;;5070923;28;20782;-67
2022/01/25 11:52:20;;;;;;;28.30;17.53;;;5.40;99.90;;;;;;5071219;28;20967;-68
2022/01/25 11:54:45;;;;;;;30.17;17.03;;;5.40;99.90;;;;;;5069212;28;20426;-67
2022/01/25 11:57:15;;;;;;;32.17;19.80;;;5.40;99.90;;;;;;5071036;28;20407;-69
2022/01/25 11:59:42;;;;;;;30.00;18.47;;;5.40;99.90;;;;;;5053858;28;20550;-69
2022/01/25 12:02:08;;;;;;;30.20;18.87;;;5.40;99.90;;;;;;5052109;28;20527;-69
2022/01/25 12:04:34;;;;;;;28.07;17.77;;;5.40;99.90;;;;;;5051157;28;20408;-69
2022/01/25 12:07:03;;;;;;;28.40;17.23;;;5.40;99.90;;;;;;5032871;28;20420;-68
2022/01/25 12:09:52;;;;;;;31.13;18.40;;;5.50;99.90;;;;;;5050922;28;20495;-69
2022/01/25 12:12:18;;;;;;;31.63;18.77;;;5.40;99.90;;;;;;5052158;28;20436;-68
2022/01/25 12:14:48;;;;;;;28.93;16.13;;;5.40;99.90;;;;;;5050856;28;20414;-69
2022/01/25 12:17:20;;;;;;;31.63;17.50;;;5.40;99.90;;;;;;5050812;28;20182;-69
2022/01/25 12:19:50;;;;;;;29.57;16.30;;;5.50;99.90;;;;;;5033553;28;20447;-69
2022/01/25 12:22:39;;;;;;;30.77;17.53;;;5.50;99.90;;;;;;5050853;28;20459;-67
2022/01/25 12:25:36;;;;;;;27.97;16.97;;;5.50;99.90;;;;;;5050970;28;20404;-70
2022/01/25 12:28:09;;;;;;;28.57;15.90;;;5.50;99.90;;;;;;5050335;28;20400;-69
2022/01/25 12:30:38;;;;;;;26.40;16.60;;;5.50;99.90;;;;;;5051014;28;20393;-68
2022/01/25 12:33:32;;;;;;;28.80;17.53;;;5.50;99.90;;;;;;5051658;28;20743;-69
2022/01/25 12:36:00;;;;;;;31.60;18.20;;;5.50;99.90;;;;;;5050346;28;20417;-68
2022/01/25 12:38:39;;;;;;;35.43;18.73;;;5.50;99.90;;;;;;5050728;28;20431;-69
2022/01/25 12:41:07;;;;;;;30.77;19.53;;;5.40;99.90;;;;;;5050756;28;20435;-68
2022/01/25 12:43:40;;;;;;;31.03;18.80;;;5.40;99.90;;;;;;5051389;28;20868;-69
2022/01/25 12:46:15;;;;;;;30.50;18.43;;;5.40;99.90;;;;;;5054830;28;20412;-69
2022/01/25 12:48:47;;;;;;;29.17;18.17;;;5.40;99.90;;;;;;5055741;28;20983;-67
2022/01/25 12:51:42;;;;;;;31.03;19.10;;;5.50;99.90;;;;;;5075009;28;20443;-69
2022/01/25 12:54:11;;;;;;;31.70;18.50;;;5.50;99.90;;;;;;4992270;28;20443;-68
2022/01/25 12:56:43;;;;;;;28.70;18.87;;;5.40;99.90;;;;;;4992087;28;20419;-68
2022/01/25 12:59:16;;;;;;;35.77;19.70;;;5.50;99.90;;;;;;4992044;28;20550;-67
2022/01/25 13:01:43;;;;;;;30.70;18.53;;;5.50;99.90;;;;;;4973422;28;20490;-68
2022/01/25 13:04:10;;;;;;;27.80;16.90;;;5.50;99.90;;;;;;4972966;28;20476;-68
2022/01/25 13:06:38;;;;;;;32.87;17.80;;;5.60;99.90;;;;;;4972880;28;20587;-68
2022/01/25 13:09:15;;;;;;;30.20;18.40;;;5.60;99.90;;;;;;4973160;28;20416;-70
2022/01/25 13:14:43;;;;;;;27.57;17.73;;;5.50;99.90;;;;;;4992447;28;20458;-68
2022/01/25 13:17:14;;;;;;;29.80;17.57;;;5.30;99.90;;;;;;4991814;28;20451;-69
2022/01/25 13:19:54;;;;;;;31.73;17.60;;;5.30;99.90;;;;;;4992300;28;20459;-68
2022/01/25 13:22:30;;;;;;;30.50;19.20;;;5.40;99.90;;;;;;4990049;28;20534;-67
2022/01/25 13:25:25;;;;;;;31.03;18.03;;;5.50;99.90;;;;;;4991974;28;20435;-67
2022/01/25 13:27:55;;;;;;;30.27;18.43;;;5.30;99.90;;;;;;4992189;28;20398;-68
2022/01/25 13:30:45;;;;;;;31.40;18.20;;;5.30;99.90;;;;;;5026870;28;20424;-68
2022/01/25 13:33:19;;;;;;;30.40;18.50;;;5.10;99.90;;;;;;5057232;28;20443;-67
2022/01/25 13:35:49;;;;;;;28.73;16.97;;;4.90;99.90;;;;;;5053187;28;20463;-68
2022/01/25 13:38:41;;;;;;;31.20;18.57;;;4.90;99.90;;;;;;5053706;28;20876;-66
2022/01/25 13:46:40;;;;;;;33.00;19.00;;;5.10;99.90;;;;;;5053381;28;20397;-68
2022/01/25 13:49:13;;;;;;;29.13;19.03;;;5.00;99.90;;;;;;5053531;28;20404;-68
2022/01/25 13:51:52;;;;;;;30.97;18.30;;;5.00;99.90;;;;;;5053871;28;20431;-67
2022/01/25 13:54:24;;;;;;;29.57;19.20;;;4.90;99.90;;;;;;5054685;28;20420;-68
2022/01/25 13:56:50;;;;;;;28.83;17.80;;;5.00;99.90;;;;;;5052200;28;20499;-68
2022/01/25 13:59:16;;;;;;;30.50;19.30;;;5.10;99.90;;;;;;5067125;28;21054;-67
2022/01/25 14:01:43;;;;;;;30.93;17.47;;;5.10;99.90;;;;;;5073562;28;20213;-69
2022/01/25 14:04:21;;;;;;;32.50;19.27;;;4.90;99.90;;;;;;5065429;28;20418;-68
2022/01/25 14:06:52;;;;;;;34.13;20.33;;;4.80;99.90;;;;;;5053020;28;20421;-68
2022/01/25 14:09:28;;;;;;;29.10;17.43;;;4.90;99.90;;;;;;5053006;28;20471;-68
2022/01/25 14:25:38;;;;;;;30.30;19.13;;;5.10;99.90;;;;;;5052560;28;20837;-68
2022/01/25 14:28:06;;;;;;;35.80;18.90;;;5.20;99.90;;;;;;5052852;28;20422;-68
2022/01/25 14:30:35;;;;;;;30.50;17.90;;;5.30;99.90;;;;;;5061887;28;20842;-67
2022/01/25 14:33:11;;;;;;;31.80;18.87;;;5.40;99.90;;;;;;5072609;28;20457;-67
2022/01/25 14:35:48;;;;;;;28.87;18.17;;;5.40;99.90;;;;;;5072317;28;20403;-68
2022/01/25 14:38:43;;;;;;;29.47;18.00;;;5.40;99.90;;;;;;5071048;28;20408;-69
2022/01/25 14:41:14;;;;;;;31.70;17.80;;;5.40;99.90;;;;;;5051785;28;20464;-68
2022/01/25 14:43:49;;;;;;;34.90;20.53;;;5.40;99.90;;;;;;5052305;28;20405;-68
2022/01/25 14:46:25;;;;;;;31.57;19.57;;;5.40;99.90;;;;;;5052471;28;20381;-69